sensor_id;sensor_type;location;lat;lon;timestamp;P1;durP1;ratioP1;P2;durP2;ratioP2
60641;SDS011;46837;52.446;-1.930;2023-12-04T00:00:07;31.24;;;12.56;;
60641;SDS011;46837;52.446;-1.930;2023-12-04T00:01:07;26.82;;;12.60;;
60641;SDS011;46837;52.446;-1.930;2023-12-04T00:02:07;43.70;;;14.16;;
60641;SDS011;46837;52.446;-1.930;2023-12-04T00:03:07;82.90;;;17.24;;
60641;SDS011;46837;52.446;-1.930;2023-12-04T00:04:07;56.30;;;17.24;;
60641;SDS011;46837;52.446;-1.930;2023-12-04T00:05:07;42.40;;;15.40;;
60641;SDS011;46837;52.446;-1.930;2023-12-04T00:06:07;101.82;;;17.78;;
60641;SDS011;46837;52.446;-1.930;2023-12-04T00:07:07;46.36;;;15.34;;
60641;SDS011;46837;52.446;-1.930;2023-12-04T00:08:07;81.10;;;19.46;;
60641;SDS011;46837;52.446;-1.930;2023-12-04T00:09:07;43.70;;;15.32;;
60641;SDS011;46837;52.446;-1.930;2023-12-04T00:10:07;29.12;;;13.12;;
60641;SDS011;46837;52.446;-1.930;2023-12-04T00:11:07;29.20;;;13.00;;
60641;SDS011;46837;52.446;-1.930;2023-12-04T00:12:07;31.02;;;15.70;;
60641;SDS011;46837;52.446;-1.930;2023-12-04T00:13:07;55.66;;;16.52;;
60641;SDS011;46837;52.446;-1.930;2023-12-04T00:14:07;96.80;;;17.24;;
60641;SDS011;46837;52.446;-1.930;2023-12-04T00:15:07;47.28;;;16.42;;
60641;SDS011;46837;52.446;-1.930;2023-12-04T00:16:07;44.28;;;13.46;;
60641;SDS011;46837;52.446;-1.930;2023-12-04T00:17:07;64.68;;;15.12;;
60641;SDS011;46837;52.446;-1.930;2023-12-04T00:18:07;54.74;;;17.56;;
60641;SDS011;46837;52.446;-1.930;2023-12-04T00:19:07;56.58;;;16.68;;
60641;SDS011;46837;52.446;-1.930;2023-12-04T00:20:07;47.46;;;16.24;;
60641;SDS011;46837;52.446;-1.930;2023-12-04T00:21:07;56.06;;;16.24;;
60641;SDS011;46837;52.446;-1.930;2023-12-04T00:22:07;48.04;;;16.90;;
60641;SDS011;46837;52.446;-1.930;2023-12-04T00:23:07;46.16;;;16.92;;
60641;SDS011;46837;52.446;-1.930;2023-12-04T00:24:07;51.48;;;15.58;;
60641;SDS011;46837;52.446;-1.930;2023-12-04T00:25:07;62.20;;;15.62;;
60641;SDS011;46837;52.446;-1.930;2023-12-04T00:26:07;43.64;;;16.18;;
60641;SDS011;46837;52.446;-1.930;2023-12-04T00:27:07;70.86;;;19.10;;
60641;SDS011;46837;52.446;-1.930;2023-12-04T00:28:07;68.54;;;16.84;;
60641;SDS011;46837;52.446;-1.930;2023-12-04T00:29:07;68.52;;;16.68;;
60641;SDS011;46837;52.446;-1.930;2023-12-04T00:30:07;106.70;;;16.96;;
60641;SDS011;46837;52.446;-1.930;2023-12-04T00:31:07;91.82;;;16.74;;
60641;SDS011;46837;52.446;-1.930;2023-12-04T00:32:07;143.84;;;19.54;;
60641;SDS011;46837;52.446;-1.930;2023-12-04T00:33:07;97.58;;;17.90;;
60641;SDS011;46837;52.446;-1.930;2023-12-04T00:34:07;77.44;;;17.60;;
60641;SDS011;46837;52.446;-1.930;2023-12-04T00:35:07;132.44;;;18.28;;
60641;SDS011;46837;52.446;-1.930;2023-12-04T00:36:07;48.98;;;16.88;;
60641;SDS011;46837;52.446;-1.930;2023-12-04T00:37:07;245.66;;;23.92;;
60641;SDS011;46837;52.446;-1.930;2023-12-04T00:38:07;53.94;;;18.42;;
60641;SDS011;46837;52.446;-1.930;2023-12-04T00:39:07;60.48;;;15.84;;
60641;SDS011;46837;52.446;-1.930;2023-12-04T00:40:07;52.62;;;15.00;;
60641;SDS011;46837;52.446;-1.930;2023-12-04T00:41:07;47.28;;;14.74;;
60641;SDS011;46837;52.446;-1.930;2023-12-04T00:42:07;70.06;;;16.90;;
60641;SDS011;46837;52.446;-1.930;2023-12-04T00:43:07;52.38;;;15.72;;
60641;SDS011;46837;52.446;-1.930;2023-12-04T00:44:07;40.84;;;15.44;;
60641;SDS011;46837;52.446;-1.930;2023-12-04T00:45:07;41.92;;;15.04;;
60641;SDS011;46837;52.446;-1.930;2023-12-04T00:46:07;58.08;;;16.12;;
60641;SDS011;46837;52.446;-1.930;2023-12-04T00:47:07;41.12;;;14.90;;
60641;SDS011;46837;52.446;-1.930;2023-12-04T00:48:07;63.08;;;15.66;;
60641;SDS011;46837;52.446;-1.930;2023-12-04T00:49:07;45.58;;;14.98;;
60641;SDS011;46837;52.446;-1.930;2023-12-04T00:50:07;60.04;;;15.04;;
60641;SDS011;46837;52.446;-1.930;2023-12-04T00:51:07;45.64;;;15.12;;
60641;SDS011;46837;52.446;-1.930;2023-12-04T00:52:07;45.90;;;14.72;;
60641;SDS011;46837;52.446;-1.930;2023-12-04T00:53:07;31.44;;;13.68;;
60641;SDS011;46837;52.446;-1.930;2023-12-04T00:54:07;49.92;;;16.54;;
60641;SDS011;46837;52.446;-1.930;2023-12-04T00:55:07;49.50;;;15.84;;
60641;SDS011;46837;52.446;-1.930;2023-12-04T00:56:07;66.66;;;17.40;;
60641;SDS011;46837;52.446;-1.930;2023-12-04T00:57:07;50.34;;;16.08;;
60641;SDS011;46837;52.446;-1.930;2023-12-04T00:58:07;41.70;;;16.34;;
60641;SDS011;46837;52.446;-1.930;2023-12-04T00:59:09;37.98;;;14.76;;
60641;SDS011;46837;52.446;-1.930;2023-12-04T01:00:07;35.36;;;13.22;;
60641;SDS011;46837;52.446;-1.930;2023-12-04T01:01:07;37.94;;;14.56;;
60641;SDS011;46837;52.446;-1.930;2023-12-04T01:02:07;29.94;;;14.16;;
60641;SDS011;46837;52.446;-1.930;2023-12-04T01:03:07;36.86;;;13.06;;
60641;SDS011;46837;52.446;-1.930;2023-12-04T01:04:07;41.04;;;14.00;;
60641;SDS011;46837;52.446;-1.930;2023-12-04T01:05:07;65.86;;;14.26;;
60641;SDS011;46837;52.446;-1.930;2023-12-04T01:06:07;44.10;;;14.10;;
60641;SDS011;46837;52.446;-1.930;2023-12-04T01:07:07;38.86;;;13.44;;
60641;SDS011;46837;52.446;-1.930;2023-12-04T01:08:07;36.06;;;14.74;;
60641;SDS011;46837;52.446;-1.930;2023-12-04T01:09:07;32.92;;;14.50;;
60641;SDS011;46837;52.446;-1.930;2023-12-04T01:10:07;43.16;;;15.70;;
60641;SDS011;46837;52.446;-1.930;2023-12-04T01:11:07;32.06;;;14.40;;
60641;SDS011;46837;52.446;-1.930;2023-12-04T01:12:07;39.52;;;14.04;;
60641;SDS011;46837;52.446;-1.930;2023-12-04T01:13:07;36.92;;;13.54;;
60641;SDS011;46837;52.446;-1.930;2023-12-04T01:14:07;45.06;;;14.68;;
60641;SDS011;46837;52.446;-1.930;2023-12-04T01:15:07;44.92;;;13.54;;
60641;SDS011;46837;52.446;-1.930;2023-12-04T01:16:07;36.22;;;13.26;;
60641;SDS011;46837;52.446;-1.930;2023-12-04T01:17:07;45.40;;;15.26;;
60641;SDS011;46837;52.446;-1.930;2023-12-04T01:18:07;51.66;;;15.02;;
60641;SDS011;46837;52.446;-1.930;2023-12-04T01:19:07;213.54;;;22.10;;
60641;SDS011;46837;52.446;-1.930;2023-12-04T01:20:07;53.82;;;14.82;;
60641;SDS011;46837;52.446;-1.930;2023-12-04T01:21:07;144.86;;;16.86;;
60641;SDS011;46837;52.446;-1.930;2023-12-04T01:22:07;64.48;;;16.60;;
60641;SDS011;46837;52.446;-1.930;2023-12-04T01:23:07;29.76;;;12.62;;
60641;SDS011;46837;52.446;-1.930;2023-12-04T01:24:07;56.64;;;15.38;;
60641;SDS011;46837;52.446;-1.930;2023-12-04T01:25:07;83.74;;;14.96;;
60641;SDS011;46837;52.446;-1.930;2023-12-04T01:26:07;29.66;;;13.10;;
60641;SDS011;46837;52.446;-1.930;2023-12-04T01:27:07;34.40;;;14.08;;
60641;SDS011;46837;52.446;-1.930;2023-12-04T01:28:07;42.80;;;14.62;;
60641;SDS011;46837;52.446;-1.930;2023-12-04T01:29:07;28.96;;;12.92;;
60641;SDS011;46837;52.446;-1.930;2023-12-04T01:30:07;117.16;;;17.24;;
60641;SDS011;46837;52.446;-1.930;2023-12-04T01:31:07;112.04;;;18.42;;
60641;SDS011;46837;52.446;-1.930;2023-12-04T01:32:07;39.12;;;12.84;;
60641;SDS011;46837;52.446;-1.930;2023-12-04T01:33:07;42.06;;;15.98;;
60641;SDS011;46837;52.446;-1.930;2023-12-04T01:34:07;58.42;;;13.74;;
60641;SDS011;46837;52.446;-1.930;2023-12-04T01:35:07;91.02;;;15.72;;
60641;SDS011;46837;52.446;-1.930;2023-12-04T01:36:07;21.36;;;11.06;;
60641;SDS011;46837;52.446;-1.930;2023-12-04T01:37:07;26.20;;;12.42;;
60641;SDS011;46837;52.446;-1.930;2023-12-04T01:38:07;30.44;;;14.08;;
60641;SDS011;46837;52.446;-1.930;2023-12-04T01:39:07;29.76;;;13.46;;
60641;SDS011;46837;52.446;-1.930;2023-12-04T01:40:07;36.26;;;12.96;;
60641;SDS011;46837;52.446;-1.930;2023-12-04T01:41:07;38.12;;;14.22;;
60641;SDS011;46837;52.446;-1.930;2023-12-04T01:42:07;20.66;;;11.32;;
60641;SDS011;46837;52.446;-1.930;2023-12-04T01:43:07;43.82;;;14.94;;
60641;SDS011;46837;52.446;-1.930;2023-12-04T01:44:07;264.66;;;18.58;;
60641;SDS011;46837;52.446;-1.930;2023-12-04T01:45:07;28.18;;;12.18;;
60641;SDS011;46837;52.446;-1.930;2023-12-04T01:46:07;32.66;;;13.30;;
60641;SDS011;46837;52.446;-1.930;2023-12-04T01:47:08;38.46;;;12.96;;
60641;SDS011;46837;52.446;-1.930;2023-12-04T01:48:07;22.30;;;12.28;;
60641;SDS011;46837;52.446;-1.930;2023-12-04T01:49:07;17.60;;;10.96;;
60641;SDS011;46837;52.446;-1.930;2023-12-04T01:50:07;30.06;;;13.12;;
60641;SDS011;46837;52.446;-1.930;2023-12-04T01:51:07;34.54;;;13.44;;
60641;SDS011;46837;52.446;-1.930;2023-12-04T01:52:07;41.64;;;14.40;;
60641;SDS011;46837;52.446;-1.930;2023-12-04T01:53:07;25.88;;;12.80;;
60641;SDS011;46837;52.446;-1.930;2023-12-04T01:54:07;23.44;;;11.22;;
60641;SDS011;46837;52.446;-1.930;2023-12-04T01:55:07;32.24;;;12.20;;
60641;SDS011;46837;52.446;-1.930;2023-12-04T01:56:07;19.86;;;11.92;;
60641;SDS011;46837;52.446;-1.930;2023-12-04T01:57:07;21.78;;;11.70;;
60641;SDS011;46837;52.446;-1.930;2023-12-04T01:58:07;26.78;;;11.10;;
60641;SDS011;46837;52.446;-1.930;2023-12-04T01:59:07;38.06;;;12.94;;
60641;SDS011;46837;52.446;-1.930;2023-12-04T02:00:07;39.30;;;13.10;;
60641;SDS011;46837;52.446;-1.930;2023-12-04T02:01:07;23.54;;;11.44;;
60641;SDS011;46837;52.446;-1.930;2023-12-04T02:02:07;30.44;;;13.36;;
60641;SDS011;46837;52.446;-1.930;2023-12-04T02:03:07;21.56;;;10.40;;
60641;SDS011;46837;52.446;-1.930;2023-12-04T02:04:07;22.02;;;11.32;;
60641;SDS011;46837;52.446;-1.930;2023-12-04T02:05:07;32.02;;;12.68;;
60641;SDS011;46837;52.446;-1.930;2023-12-04T02:06:07;25.66;;;11.38;;
60641;SDS011;46837;52.446;-1.930;2023-12-04T02:07:07;19.96;;;10.10;;
60641;SDS011;46837;52.446;-1.930;2023-12-04T02:08:07;24.42;;;10.84;;
60641;SDS011;46837;52.446;-1.930;2023-12-04T02:09:07;32.70;;;12.86;;
60641;SDS011;46837;52.446;-1.930;2023-12-04T02:10:07;29.30;;;11.44;;
60641;SDS011;46837;52.446;-1.930;2023-12-04T02:11:07;23.60;;;10.82;;
60641;SDS011;46837;52.446;-1.930;2023-12-04T02:12:07;21.40;;;11.04;;
60641;SDS011;46837;52.446;-1.930;2023-12-04T02:13:07;26.30;;;11.04;;
60641;SDS011;46837;52.446;-1.930;2023-12-04T02:14:07;24.70;;;11.12;;
60641;SDS011;46837;52.446;-1.930;2023-12-04T02:15:07;22.04;;;12.08;;
60641;SDS011;46837;52.446;-1.930;2023-12-04T02:16:09;26.04;;;11.30;;
60641;SDS011;46837;52.446;-1.930;2023-12-04T02:17:07;23.64;;;11.84;;
60641;SDS011;46837;52.446;-1.930;2023-12-04T02:18:07;33.82;;;11.76;;
60641;SDS011;46837;52.446;-1.930;2023-12-04T02:19:07;22.44;;;9.64;;
60641;SDS011;46837;52.446;-1.930;2023-12-04T02:20:07;19.62;;;9.92;;
60641;SDS011;46837;52.446;-1.930;2023-12-04T02:21:07;21.66;;;9.56;;
60641;SDS011;46837;52.446;-1.930;2023-12-04T02:22:07;18.68;;;10.16;;
60641;SDS011;46837;52.446;-1.930;2023-12-04T02:23:07;30.60;;;12.28;;
60641;SDS011;46837;52.446;-1.930;2023-12-04T02:24:07;31.94;;;12.18;;
60641;SDS011;46837;52.446;-1.930;2023-12-04T02:25:07;29.16;;;12.36;;
60641;SDS011;46837;52.446;-1.930;2023-12-04T02:26:10;16.74;;;9.78;;
60641;SDS011;46837;52.446;-1.930;2023-12-04T02:27:10;19.76;;;10.38;;
60641;SDS011;46837;52.446;-1.930;2023-12-04T02:28:07;23.36;;;11.04;;
60641;SDS011;46837;52.446;-1.930;2023-12-04T02:29:08;21.46;;;11.80;;
60641;SDS011;46837;52.446;-1.930;2023-12-04T02:30:07;34.00;;;13.46;;
60641;SDS011;46837;52.446;-1.930;2023-12-04T02:31:07;26.32;;;11.90;;
60641;SDS011;46837;52.446;-1.930;2023-12-04T02:32:07;20.82;;;10.04;;
60641;SDS011;46837;52.446;-1.930;2023-12-04T02:33:07;24.36;;;11.46;;
60641;SDS011;46837;52.446;-1.930;2023-12-04T02:34:07;20.50;;;11.30;;
60641;SDS011;46837;52.446;-1.930;2023-12-04T02:35:07;18.70;;;10.12;;
60641;SDS011;46837;52.446;-1.930;2023-12-04T02:36:07;19.04;;;9.44;;
60641;SDS011;46837;52.446;-1.930;2023-12-04T02:37:07;13.22;;;8.48;;
60641;SDS011;46837;52.446;-1.930;2023-12-04T02:38:07;15.06;;;8.96;;
60641;SDS011;46837;52.446;-1.930;2023-12-04T02:39:07;17.38;;;8.22;;
60641;SDS011;46837;52.446;-1.930;2023-12-04T02:40:07;17.64;;;9.70;;
60641;SDS011;46837;52.446;-1.930;2023-12-04T02:41:07;9.84;;;6.94;;
60641;SDS011;46837;52.446;-1.930;2023-12-04T02:42:07;18.52;;;9.90;;
60641;SDS011;46837;52.446;-1.930;2023-12-04T02:43:07;15.48;;;9.78;;
60641;SDS011;46837;52.446;-1.930;2023-12-04T02:44:07;21.62;;;8.92;;
60641;SDS011;46837;52.446;-1.930;2023-12-04T02:45:07;39.74;;;10.60;;
60641;SDS011;46837;52.446;-1.930;2023-12-04T02:46:07;22.88;;;9.18;;
60641;SDS011;46837;52.446;-1.930;2023-12-04T02:47:07;19.80;;;9.46;;
60641;SDS011;46837;52.446;-1.930;2023-12-04T02:48:07;23.66;;;10.12;;
60641;SDS011;46837;52.446;-1.930;2023-12-04T02:49:07;18.44;;;10.28;;
60641;SDS011;46837;52.446;-1.930;2023-12-04T02:50:07;18.84;;;9.34;;
60641;SDS011;46837;52.446;-1.930;2023-12-04T02:51:07;9.44;;;6.46;;
60641;SDS011;46837;52.446;-1.930;2023-12-04T02:52:07;11.82;;;7.02;;
60641;SDS011;46837;52.446;-1.930;2023-12-04T02:53:07;6.76;;;5.52;;
60641;SDS011;46837;52.446;-1.930;2023-12-04T02:54:07;3.92;;;3.26;;
60641;SDS011;46837;52.446;-1.930;2023-12-04T02:55:07;4.60;;;3.14;;
60641;SDS011;46837;52.446;-1.930;2023-12-04T02:56:07;8.80;;;3.92;;
60641;SDS011;46837;52.446;-1.930;2023-12-04T02:57:07;4.92;;;2.94;;
60641;SDS011;46837;52.446;-1.930;2023-12-04T02:58:07;8.10;;;4.32;;
60641;SDS011;46837;52.446;-1.930;2023-12-04T02:59:07;9.54;;;4.04;;
60641;SDS011;46837;52.446;-1.930;2023-12-04T03:00:07;9.84;;;3.50;;
60641;SDS011;46837;52.446;-1.930;2023-12-04T03:01:07;4.38;;;2.40;;
60641;SDS011;46837;52.446;-1.930;2023-12-04T03:02:07;1.98;;;1.84;;
60641;SDS011;46837;52.446;-1.930;2023-12-04T03:03:07;1.86;;;1.72;;
60641;SDS011;46837;52.446;-1.930;2023-12-04T03:04:07;3.20;;;1.66;;
60641;SDS011;46837;52.446;-1.930;2023-12-04T03:05:07;2.04;;;1.84;;
60641;SDS011;46837;52.446;-1.930;2023-12-04T03:06:07;2.42;;;1.64;;
60641;SDS011;46837;52.446;-1.930;2023-12-04T03:07:07;1.52;;;1.32;;
60641;SDS011;46837;52.446;-1.930;2023-12-04T03:08:07;17.68;;;2.10;;
60641;SDS011;46837;52.446;-1.930;2023-12-04T03:09:07;4.04;;;1.48;;
60641;SDS011;46837;52.446;-1.930;2023-12-04T03:10:07;2.82;;;1.24;;
60641;SDS011;46837;52.446;-1.930;2023-12-04T03:11:07;4.66;;;1.72;;
60641;SDS011;46837;52.446;-1.930;2023-12-04T03:12:07;3.96;;;1.70;;
60641;SDS011;46837;52.446;-1.930;2023-12-04T03:13:07;1.38;;;1.20;;
60641;SDS011;46837;52.446;-1.930;2023-12-04T03:14:07;2.26;;;1.08;;
60641;SDS011;46837;52.446;-1.930;2023-12-04T03:15:07;1.94;;;0.76;;
60641;SDS011;46837;52.446;-1.930;2023-12-04T03:16:14;3.96;;;1.24;;
60641;SDS011;46837;52.446;-1.930;2023-12-04T03:17:07;1.78;;;1.30;;
60641;SDS011;46837;52.446;-1.930;2023-12-04T03:18:07;5.54;;;1.42;;
60641;SDS011;46837;52.446;-1.930;2023-12-04T03:19:07;1.22;;;1.10;;
60641;SDS011;46837;52.446;-1.930;2023-12-04T03:20:09;3.30;;;1.06;;
60641;SDS011;46837;52.446;-1.930;2023-12-04T03:21:07;3.86;;;1.54;;
60641;SDS011;46837;52.446;-1.930;2023-12-04T03:22:07;2.48;;;1.30;;
60641;SDS011;46837;52.446;-1.930;2023-12-04T03:23:07;0.96;;;0.64;;
60641;SDS011;46837;52.446;-1.930;2023-12-04T03:24:07;1.40;;;1.30;;
60641;SDS011;46837;52.446;-1.930;2023-12-04T03:25:07;1.18;;;0.94;;
60641;SDS011;46837;52.446;-1.930;2023-12-04T03:26:07;4.40;;;1.16;;
60641;SDS011;46837;52.446;-1.930;2023-12-04T03:27:07;3.50;;;1.24;;
60641;SDS011;46837;52.446;-1.930;2023-12-04T03:28:07;4.60;;;1.56;;
60641;SDS011;46837;52.446;-1.930;2023-12-04T03:29:07;1.98;;;1.40;;
60641;SDS011;46837;52.446;-1.930;2023-12-04T03:30:07;3.06;;;1.08;;
60641;SDS011;46837;52.446;-1.930;2023-12-04T03:31:07;3.42;;;1.12;;
60641;SDS011;46837;52.446;-1.930;2023-12-04T03:32:07;1.98;;;1.16;;
60641;SDS011;46837;52.446;-1.930;2023-12-04T03:33:07;2.38;;;0.96;;
60641;SDS011;46837;52.446;-1.930;2023-12-04T03:34:07;3.36;;;1.24;;
60641;SDS011;46837;52.446;-1.930;2023-12-04T03:35:07;3.00;;;0.98;;
60641;SDS011;46837;52.446;-1.930;2023-12-04T03:36:07;2.14;;;1.30;;
60641;SDS011;46837;52.446;-1.930;2023-12-04T03:37:07;4.10;;;1.10;;
60641;SDS011;46837;52.446;-1.930;2023-12-04T03:38:07;1.98;;;1.04;;
60641;SDS011;46837;52.446;-1.930;2023-12-04T03:39:07;3.46;;;1.18;;
60641;SDS011;46837;52.446;-1.930;2023-12-04T03:40:07;12.24;;;1.60;;
60641;SDS011;46837;52.446;-1.930;2023-12-04T03:42:07;2.86;;;1.10;;
60641;SDS011;46837;52.446;-1.930;2023-12-04T03:43:07;2.96;;;1.12;;
60641;SDS011;46837;52.446;-1.930;2023-12-04T03:44:07;1.02;;;0.84;;
60641;SDS011;46837;52.446;-1.930;2023-12-04T03:45:07;4.60;;;1.14;;
60641;SDS011;46837;52.446;-1.930;2023-12-04T03:46:07;3.62;;;1.04;;
60641;SDS011;46837;52.446;-1.930;2023-12-04T03:47:07;3.00;;;0.90;;
60641;SDS011;46837;52.446;-1.930;2023-12-04T03:48:07;1.50;;;1.00;;
60641;SDS011;46837;52.446;-1.930;2023-12-04T03:49:07;3.18;;;1.32;;
60641;SDS011;46837;52.446;-1.930;2023-12-04T03:50:07;4.98;;;1.44;;
60641;SDS011;46837;52.446;-1.930;2023-12-04T03:51:07;1.28;;;0.94;;
60641;SDS011;46837;52.446;-1.930;2023-12-04T03:52:07;1.34;;;1.14;;
60641;SDS011;46837;52.446;-1.930;2023-12-04T03:53:07;2.28;;;1.14;;
60641;SDS011;46837;52.446;-1.930;2023-12-04T03:54:07;2.06;;;1.20;;
60641;SDS011;46837;52.446;-1.930;2023-12-04T03:55:07;5.50;;;1.28;;
60641;SDS011;46837;52.446;-1.930;2023-12-04T03:56:07;2.26;;;1.58;;
60641;SDS011;46837;52.446;-1.930;2023-12-04T03:57:07;1.70;;;1.22;;
60641;SDS011;46837;52.446;-1.930;2023-12-04T03:58:07;4.98;;;1.22;;
60641;SDS011;46837;52.446;-1.930;2023-12-04T03:59:08;2.34;;;1.34;;
60641;SDS011;46837;52.446;-1.930;2023-12-04T04:00:08;4.38;;;1.40;;
60641;SDS011;46837;52.446;-1.930;2023-12-04T04:01:07;4.06;;;1.08;;
60641;SDS011;46837;52.446;-1.930;2023-12-04T04:02:07;2.48;;;1.56;;
60641;SDS011;46837;52.446;-1.930;2023-12-04T04:03:07;3.02;;;1.38;;
60641;SDS011;46837;52.446;-1.930;2023-12-04T04:04:07;2.92;;;1.84;;
60641;SDS011;46837;52.446;-1.930;2023-12-04T04:05:07;3.80;;;1.54;;
60641;SDS011;46837;52.446;-1.930;2023-12-04T04:06:07;3.36;;;1.50;;
60641;SDS011;46837;52.446;-1.930;2023-12-04T04:07:07;2.58;;;1.50;;
60641;SDS011;46837;52.446;-1.930;2023-12-04T04:08:08;1.58;;;1.48;;
60641;SDS011;46837;52.446;-1.930;2023-12-04T04:09:07;3.94;;;1.74;;
60641;SDS011;46837;52.446;-1.930;2023-12-04T04:10:07;5.78;;;1.74;;
60641;SDS011;46837;52.446;-1.930;2023-12-04T04:11:07;2.64;;;1.50;;
60641;SDS011;46837;52.446;-1.930;2023-12-04T04:12:07;3.62;;;1.90;;
60641;SDS011;46837;52.446;-1.930;2023-12-04T04:13:07;2.28;;;1.74;;
60641;SDS011;46837;52.446;-1.930;2023-12-04T04:14:07;3.54;;;1.88;;
60641;SDS011;46837;52.446;-1.930;2023-12-04T04:15:07;3.40;;;1.56;;
60641;SDS011;46837;52.446;-1.930;2023-12-04T04:16:07;1.92;;;1.42;;
60641;SDS011;46837;52.446;-1.930;2023-12-04T04:17:07;15.34;;;2.08;;
60641;SDS011;46837;52.446;-1.930;2023-12-04T04:18:07;2.18;;;1.18;;
60641;SDS011;46837;52.446;-1.930;2023-12-04T04:19:07;2.72;;;2.16;;
60641;SDS011;46837;52.446;-1.930;2023-12-04T04:20:07;4.08;;;1.28;;
60641;SDS011;46837;52.446;-1.930;2023-12-04T04:21:07;1.36;;;1.04;;
60641;SDS011;46837;52.446;-1.930;2023-12-04T04:22:07;1.08;;;0.96;;
60641;SDS011;46837;52.446;-1.930;2023-12-04T04:23:07;2.36;;;1.10;;
60641;SDS011;46837;52.446;-1.930;2023-12-04T04:24:07;2.16;;;1.58;;
60641;SDS011;46837;52.446;-1.930;2023-12-04T04:25:07;1.80;;;1.14;;
60641;SDS011;46837;52.446;-1.930;2023-12-04T04:26:07;2.04;;;1.90;;
60641;SDS011;46837;52.446;-1.930;2023-12-04T04:27:07;4.30;;;1.22;;
60641;SDS011;46837;52.446;-1.930;2023-12-04T04:28:07;6.66;;;1.54;;
60641;SDS011;46837;52.446;-1.930;2023-12-04T04:29:07;4.34;;;1.42;;
60641;SDS011;46837;52.446;-1.930;2023-12-04T04:30:07;2.32;;;1.50;;
60641;SDS011;46837;52.446;-1.930;2023-12-04T04:31:07;3.48;;;1.50;;
60641;SDS011;46837;52.446;-1.930;2023-12-04T04:32:07;2.88;;;1.54;;
60641;SDS011;46837;52.446;-1.930;2023-12-04T04:33:07;2.56;;;1.40;;
60641;SDS011;46837;52.446;-1.930;2023-12-04T04:34:07;2.38;;;1.48;;
60641;SDS011;46837;52.446;-1.930;2023-12-04T04:35:07;9.08;;;2.30;;
60641;SDS011;46837;52.446;-1.930;2023-12-04T04:36:08;2.38;;;1.76;;
60641;SDS011;46837;52.446;-1.930;2023-12-04T04:37:07;1.90;;;1.28;;
60641;SDS011;46837;52.446;-1.930;2023-12-04T04:38:07;4.24;;;1.70;;
60641;SDS011;46837;52.446;-1.930;2023-12-04T04:39:07;1.68;;;1.18;;
60641;SDS011;46837;52.446;-1.930;2023-12-04T04:40:07;3.48;;;1.38;;
60641;SDS011;46837;52.446;-1.930;2023-12-04T04:41:07;1.62;;;1.42;;
60641;SDS011;46837;52.446;-1.930;2023-12-04T04:42:07;3.78;;;1.42;;
60641;SDS011;46837;52.446;-1.930;2023-12-04T04:43:07;3.50;;;1.38;;
60641;SDS011;46837;52.446;-1.930;2023-12-04T04:44:07;3.24;;;1.24;;
60641;SDS011;46837;52.446;-1.930;2023-12-04T04:45:07;4.64;;;1.62;;
60641;SDS011;46837;52.446;-1.930;2023-12-04T04:46:07;4.26;;;1.22;;
60641;SDS011;46837;52.446;-1.930;2023-12-04T04:47:07;5.78;;;1.60;;
60641;SDS011;46837;52.446;-1.930;2023-12-04T04:48:07;3.32;;;1.36;;
60641;SDS011;46837;52.446;-1.930;2023-12-04T04:49:08;1.88;;;1.32;;
60641;SDS011;46837;52.446;-1.930;2023-12-04T04:50:07;2.24;;;1.70;;
60641;SDS011;46837;52.446;-1.930;2023-12-04T04:51:07;2.14;;;1.22;;
60641;SDS011;46837;52.446;-1.930;2023-12-04T04:52:07;2.52;;;1.60;;
60641;SDS011;46837;52.446;-1.930;2023-12-04T04:53:07;5.30;;;1.66;;
60641;SDS011;46837;52.446;-1.930;2023-12-04T04:54:07;4.10;;;1.36;;
60641;SDS011;46837;52.446;-1.930;2023-12-04T04:55:07;1.54;;;1.40;;
60641;SDS011;46837;52.446;-1.930;2023-12-04T04:56:07;5.22;;;1.80;;
60641;SDS011;46837;52.446;-1.930;2023-12-04T04:57:07;2.28;;;1.32;;
60641;SDS011;46837;52.446;-1.930;2023-12-04T04:58:07;2.34;;;1.50;;
60641;SDS011;46837;52.446;-1.930;2023-12-04T04:59:07;4.60;;;1.70;;
60641;SDS011;46837;52.446;-1.930;2023-12-04T05:00:07;2.98;;;1.48;;
60641;SDS011;46837;52.446;-1.930;2023-12-04T05:01:07;1.82;;;1.48;;
60641;SDS011;46837;52.446;-1.930;2023-12-04T05:02:07;3.34;;;1.30;;
60641;SDS011;46837;52.446;-1.930;2023-12-04T05:03:07;1.96;;;1.44;;
60641;SDS011;46837;52.446;-1.930;2023-12-04T05:04:07;2.44;;;0.94;;
60641;SDS011;46837;52.446;-1.930;2023-12-04T05:05:07;5.46;;;1.14;;
60641;SDS011;46837;52.446;-1.930;2023-12-04T05:06:07;2.06;;;1.26;;
60641;SDS011;46837;52.446;-1.930;2023-12-04T05:07:07;2.32;;;1.36;;
60641;SDS011;46837;52.446;-1.930;2023-12-04T05:08:07;1.22;;;1.12;;
60641;SDS011;46837;52.446;-1.930;2023-12-04T05:09:07;3.20;;;0.90;;
60641;SDS011;46837;52.446;-1.930;2023-12-04T05:10:07;3.16;;;1.24;;
60641;SDS011;46837;52.446;-1.930;2023-12-04T05:11:07;1.48;;;0.94;;
60641;SDS011;46837;52.446;-1.930;2023-12-04T05:12:07;2.16;;;1.62;;
60641;SDS011;46837;52.446;-1.930;2023-12-04T05:13:07;1.00;;;0.98;;
60641;SDS011;46837;52.446;-1.930;2023-12-04T05:14:07;2.54;;;1.46;;
60641;SDS011;46837;52.446;-1.930;2023-12-04T05:15:07;4.68;;;1.42;;
60641;SDS011;46837;52.446;-1.930;2023-12-04T05:16:07;1.52;;;1.34;;
60641;SDS011;46837;52.446;-1.930;2023-12-04T05:17:07;2.64;;;1.66;;
60641;SDS011;46837;52.446;-1.930;2023-12-04T05:18:07;1.86;;;1.12;;
60641;SDS011;46837;52.446;-1.930;2023-12-04T05:19:07;1.86;;;1.36;;
60641;SDS011;46837;52.446;-1.930;2023-12-04T05:20:07;2.70;;;1.34;;
60641;SDS011;46837;52.446;-1.930;2023-12-04T05:21:09;1.72;;;1.08;;
60641;SDS011;46837;52.446;-1.930;2023-12-04T05:22:07;1.62;;;1.38;;
60641;SDS011;46837;52.446;-1.930;2023-12-04T05:23:07;3.44;;;1.32;;
60641;SDS011;46837;52.446;-1.930;2023-12-04T05:24:07;1.16;;;1.06;;
60641;SDS011;46837;52.446;-1.930;2023-12-04T05:25:07;1.28;;;1.10;;
60641;SDS011;46837;52.446;-1.930;2023-12-04T05:26:07;5.74;;;1.86;;
60641;SDS011;46837;52.446;-1.930;2023-12-04T05:27:07;361.88;;;46.96;;
60641;SDS011;46837;52.446;-1.930;2023-12-04T05:28:07;1.66;;;1.12;;
60641;SDS011;46837;52.446;-1.930;2023-12-04T05:29:07;1.68;;;1.22;;
60641;SDS011;46837;52.446;-1.930;2023-12-04T05:30:07;4.02;;;1.48;;
60641;SDS011;46837;52.446;-1.930;2023-12-04T05:31:07;1.98;;;1.14;;
60641;SDS011;46837;52.446;-1.930;2023-12-04T05:32:07;1.88;;;1.48;;
60641;SDS011;46837;52.446;-1.930;2023-12-04T05:33:07;1.84;;;1.70;;
60641;SDS011;46837;52.446;-1.930;2023-12-04T05:34:07;3.92;;;2.34;;
60641;SDS011;46837;52.446;-1.930;2023-12-04T05:35:07;2.90;;;1.94;;
60641;SDS011;46837;52.446;-1.930;2023-12-04T05:36:07;4.10;;;1.70;;
60641;SDS011;46837;52.446;-1.930;2023-12-04T05:37:07;1.70;;;1.56;;
60641;SDS011;46837;52.446;-1.930;2023-12-04T05:38:07;2.44;;;1.98;;
60641;SDS011;46837;52.446;-1.930;2023-12-04T05:39:07;2.06;;;1.62;;
60641;SDS011;46837;52.446;-1.930;2023-12-04T05:40:07;2.80;;;2.16;;
60641;SDS011;46837;52.446;-1.930;2023-12-04T05:41:07;2.68;;;1.54;;
60641;SDS011;46837;52.446;-1.930;2023-12-04T05:42:07;2.36;;;1.70;;
60641;SDS011;46837;52.446;-1.930;2023-12-04T05:43:07;5.32;;;1.90;;
60641;SDS011;46837;52.446;-1.930;2023-12-04T05:44:07;3.10;;;2.38;;
60641;SDS011;46837;52.446;-1.930;2023-12-04T05:45:07;4.60;;;1.96;;
60641;SDS011;46837;52.446;-1.930;2023-12-04T05:46:07;3.72;;;2.16;;
60641;SDS011;46837;52.446;-1.930;2023-12-04T05:47:07;3.62;;;2.20;;
60641;SDS011;46837;52.446;-1.930;2023-12-04T05:48:07;3.44;;;2.56;;
60641;SDS011;46837;52.446;-1.930;2023-12-04T05:49:07;6.00;;;2.38;;
60641;SDS011;46837;52.446;-1.930;2023-12-04T05:50:07;2.90;;;2.16;;
60641;SDS011;46837;52.446;-1.930;2023-12-04T05:51:07;2.92;;;2.60;;